sensor_id;sensor_type;location;lat;lon;timestamp;pressure;altitude;pressure_sealevel;temperature;humidity
70916;BME280;58557;50.982;-3.222;2023-06-22T00:00:26;101184.12;;;22.54;47.23
70916;BME280;58557;50.982;-3.222;2023-06-22T00:02:52;101186.68;;;21.92;47.51
70916;BME280;58557;50.982;-3.222;2023-06-22T00:05:17;101189.09;;;21.90;48.12
70916;BME280;58557;50.982;-3.222;2023-06-22T00:07:42;101186.13;;;21.30;48.29
70916;BME280;58557;50.982;-3.222;2023-06-22T00:10:08;101186.90;;;21.75;49.54
70916;BME280;58557;50.982;-3.222;2023-06-22T00:12:33;101190.74;;;20.10;51.64
70916;BME280;58557;50.982;-3.222;2023-06-22T00:14:59;101190.42;;;20.44;50.96
70916;BME280;58557;50.982;-3.222;2023-06-22T00:17:24;101189.22;;;19.83;52.48
70916;BME280;58557;50.982;-3.222;2023-06-22T00:19:50;101191.41;;;19.92;52.49
70916;BME280;58557;50.982;-3.222;2023-06-22T00:22:16;101192.67;;;20.44;53.76
70916;BME280;58557;50.982;-3.222;2023-06-22T00:24:41;101186.18;;;21.99;48.95
70916;BME280;58557;50.982;-3.222;2023-06-22T00:27:07;101180.82;;;21.80;48.87
70916;BME280;58557;50.982;-3.222;2023-06-22T00:29:32;101183.90;;;21.57;48.97
70916;BME280;58557;50.982;-3.222;2023-06-22T00:31:58;101188.61;;;20.85;49.26
70916;BME280;58557;50.982;-3.222;2023-06-22T00:34:24;101190.98;;;21.89;47.39
70916;BME280;58557;50.982;-3.222;2023-06-22T00:36:49;101188.45;;;21.66;46.84
70916;BME280;58557;50.982;-3.222;2023-06-22T00:39:15;101189.65;;;21.37;49.62
70916;BME280;58557;50.982;-3.222;2023-06-22T00:41:40;101190.89;;;20.60;51.10
70916;BME280;58557;50.982;-3.222;2023-06-22T00:44:06;101194.52;;;21.24;49.59
70916;BME280;58557;50.982;-3.222;2023-06-22T00:46:31;101193.17;;;21.65;49.13
70916;BME280;58557;50.982;-3.222;2023-06-22T00:48:57;101195.67;;;21.57;48.28
70916;BME280;58557;50.982;-3.222;2023-06-22T00:51:23;101196.63;;;22.31;47.98
70916;BME280;58557;50.982;-3.222;2023-06-22T00:53:47;101195.67;;;21.67;48.18
70916;BME280;58557;50.982;-3.222;2023-06-22T00:56:13;101193.25;;;22.34;46.89
70916;BME280;58557;50.982;-3.222;2023-06-22T00:58:39;101190.76;;;22.72;45.61
70916;BME280;58557;50.982;-3.222;2023-06-22T01:01:03;101193.93;;;21.01;48.44
70916;BME280;58557;50.982;-3.222;2023-06-22T01:03:29;101197.06;;;18.71;55.14
70916;BME280;58557;50.982;-3.222;2023-06-22T01:05:59;101195.29;;;17.54;60.33
70916;BME280;58557;50.982;-3.222;2023-06-22T01:08:27;101197.93;;;17.62;60.79
70916;BME280;58557;50.982;-3.222;2023-06-22T01:10:49;101198.01;;;16.17;67.62
70916;BME280;58557;50.982;-3.222;2023-06-22T01:13:16;101196.84;;;17.16;64.77
70916;BME280;58557;50.982;-3.222;2023-06-22T01:15:39;101194.36;;;16.00;68.89
70916;BME280;58557;50.982;-3.222;2023-06-22T01:18:04;101193.71;;;17.40;63.29
70916;BME280;58557;50.982;-3.222;2023-06-22T01:20:28;101194.02;;;18.06;60.69
70916;BME280;58557;50.982;-3.222;2023-06-22T01:23:05;101197.91;;;17.23;64.11
70916;BME280;58557;50.982;-3.222;2023-06-22T01:25:21;101199.93;;;17.90;60.45
70916;BME280;58557;50.982;-3.222;2023-06-22T01:27:50;101202.88;;;16.10;65.65
70916;BME280;58557;50.982;-3.222;2023-06-22T01:30:10;101202.86;;;16.42;67.53
70916;BME280;58557;50.982;-3.222;2023-06-22T01:32:36;101204.96;;;16.36;68.55
70916;BME280;58557;50.982;-3.222;2023-06-22T01:35:01;101200.89;;;18.13;63.37
70916;BME280;58557;50.982;-3.222;2023-06-22T01:37:27;101198.58;;;16.90;63.93
70916;BME280;58557;50.982;-3.222;2023-06-22T01:39:52;101201.46;;;16.63;67.35
70916;BME280;58557;50.982;-3.222;2023-06-22T01:42:17;101202.86;;;16.45;70.34
70916;BME280;58557;50.982;-3.222;2023-06-22T01:44:43;101201.87;;;15.50;72.25
70916;BME280;58557;50.982;-3.222;2023-06-22T01:47:08;101201.89;;;16.95;65.72
70916;BME280;58557;50.982;-3.222;2023-06-22T01:49:34;101201.17;;;15.69;73.15
70916;BME280;58557;50.982;-3.222;2023-06-22T01:51:59;101203.67;;;16.10;71.65
70916;BME280;58557;50.982;-3.222;2023-06-22T01:54:25;101207.60;;;15.76;70.76
70916;BME280;58557;50.982;-3.222;2023-06-22T01:56:50;101211.74;;;16.54;69.33
70916;BME280;58557;50.982;-3.222;2023-06-22T01:59:20;101214.62;;;16.45;68.49
70916;BME280;58557;50.982;-3.222;2023-06-22T02:01:44;101213.27;;;15.43;71.90
70916;BME280;58557;50.982;-3.222;2023-06-22T02:04:12;101219.66;;;15.16;74.16
70916;BME280;58557;50.982;-3.222;2023-06-22T02:06:36;101219.94;;;16.98;67.50
70916;BME280;58557;50.982;-3.222;2023-06-22T02:09:02;101222.92;;;16.87;66.96
70916;BME280;58557;50.982;-3.222;2023-06-22T02:11:24;101223.19;;;17.57;62.23
70916;BME280;58557;50.982;-3.222;2023-06-22T02:13:48;101223.58;;;17.77;62.81
70916;BME280;58557;50.982;-3.222;2023-06-22T02:16:14;101224.09;;;16.04;66.09
70916;BME280;58557;50.982;-3.222;2023-06-22T02:18:39;101221.30;;;16.86;65.07
70916;BME280;58557;50.982;-3.222;2023-06-22T02:21:05;101221.92;;;17.82;62.88
70916;BME280;58557;50.982;-3.222;2023-06-22T02:23:30;101222.25;;;18.33;59.24
70916;BME280;58557;50.982;-3.222;2023-06-22T02:25:55;101229.02;;;19.12;56.53
70916;BME280;58557;50.982;-3.222;2023-06-22T02:28:21;101229.51;;;18.45;55.59
70916;BME280;58557;50.982;-3.222;2023-06-22T02:30:46;101232.46;;;19.53;53.40
70916;BME280;58557;50.982;-3.222;2023-06-22T02:33:11;101234.52;;;19.64;52.59
70916;BME280;58557;50.982;-3.222;2023-06-22T02:35:37;101234.95;;;19.78;52.94
70916;BME280;58557;50.982;-3.222;2023-06-22T02:38:03;101233.57;;;18.00;56.83
70916;BME280;58557;50.982;-3.222;2023-06-22T02:40:29;101235.31;;;18.96;56.09
70916;BME280;58557;50.982;-3.222;2023-06-22T02:42:53;101231.38;;;19.88;52.50
70916;BME280;58557;50.982;-3.222;2023-06-22T02:45:19;101230.93;;;18.65;52.71
70916;BME280;58557;50.982;-3.222;2023-06-22T02:47:44;101232.34;;;19.93;51.51
70916;BME280;58557;50.982;-3.222;2023-06-22T02:50:10;101234.29;;;19.68;51.59
70916;BME280;58557;50.982;-3.222;2023-06-22T02:52:35;101233.16;;;19.62;50.46
70916;BME280;58557;50.982;-3.222;2023-06-22T02:55:01;101229.80;;;20.03;50.08
70916;BME280;58557;50.982;-3.222;2023-06-22T02:57:27;101224.88;;;20.74;48.61
70916;BME280;58557;50.982;-3.222;2023-06-22T02:59:52;101226.30;;;20.75;47.83
70916;BME280;58557;50.982;-3.222;2023-06-22T03:02:17;101230.84;;;19.88;48.89
70916;BME280;58557;50.982;-3.222;2023-06-22T03:04:43;101232.14;;;19.99;49.71
70916;BME280;58557;50.982;-3.222;2023-06-22T03:07:08;101231.22;;;20.33;49.45
70916;BME280;58557;50.982;-3.222;2023-06-22T03:09:33;101227.86;;;19.99;49.96
70916;BME280;58557;50.982;-3.222;2023-06-22T03:11:59;101227.15;;;20.00;49.72
70916;BME280;58557;50.982;-3.222;2023-06-22T03:14:24;101226.55;;;20.09;50.23
70916;BME280;58557;50.982;-3.222;2023-06-22T03:16:50;101230.86;;;18.91;52.54
70916;BME280;58557;50.982;-3.222;2023-06-22T03:19:15;101229.12;;;18.26;54.69
70916;BME280;58557;50.982;-3.222;2023-06-22T03:21:41;101229.85;;;17.94;55.04
70916;BME280;58557;50.982;-3.222;2023-06-22T03:24:06;101226.89;;;17.79;55.39
70916;BME280;58557;50.982;-3.222;2023-06-22T03:26:31;101228.93;;;18.97;52.43
70916;BME280;58557;50.982;-3.222;2023-06-22T03:28:57;101226.46;;;17.16;58.45
70916;BME280;58557;50.982;-3.222;2023-06-22T03:31:22;101225.84;;;17.12;61.06
70916;BME280;58557;50.982;-3.222;2023-06-22T03:33:48;101221.87;;;18.21;57.30
70916;BME280;58557;50.982;-3.222;2023-06-22T03:36:14;101219.31;;;17.16;58.84
70916;BME280;58557;50.982;-3.222;2023-06-22T03:38:39;101218.62;;;17.18;61.62
70916;BME280;58557;50.982;-3.222;2023-06-22T03:41:04;101218.03;;;18.19;57.46
70916;BME280;58557;50.982;-3.222;2023-06-22T03:43:29;101219.07;;;18.47;56.78
70916;BME280;58557;50.982;-3.222;2023-06-22T03:45:55;101220.28;;;18.15;56.23
70916;BME280;58557;50.982;-3.222;2023-06-22T03:48:20;101217.07;;;17.26;60.37
70916;BME280;58557;50.982;-3.222;2023-06-22T03:50:46;101220.26;;;16.70;62.91
70916;BME280;58557;50.982;-3.222;2023-06-22T03:53:12;101215.95;;;16.64;60.60
70916;BME280;58557;50.982;-3.222;2023-06-22T03:55:37;101216.07;;;17.25;61.39
70916;BME280;58557;50.982;-3.222;2023-06-22T03:58:03;101218.80;;;17.06;61.84
70916;BME280;58557;50.982;-3.222;2023-06-22T04:00:28;101219.85;;;17.45;58.59
70916;BME280;58557;50.982;-3.222;2023-06-22T04:02:53;101219.57;;;16.42;60.40
70916;BME280;58557;50.982;-3.222;2023-06-22T04:05:19;101218.62;;;17.29;59.68
70916;BME280;58557;50.982;-3.222;2023-06-22T04:07:44;101224.67;;;16.89;61.09
70916;BME280;58557;50.982;-3.222;2023-06-22T04:10:10;101223.39;;;17.28;61.95
70916;BME280;58557;50.982;-3.222;2023-06-22T04:12:35;101222.31;;;15.70;64.14
70916;BME280;58557;50.982;-3.222;2023-06-22T04:15:00;101225.31;;;15.39;67.10
70916;BME280;58557;50.982;-3.222;2023-06-22T04:17:26;101218.74;;;17.07;61.64
70916;BME280;58557;50.982;-3.222;2023-06-22T04:19:51;101220.02;;;16.88;62.26
70916;BME280;58557;50.982;-3.222;2023-06-22T04:22:17;101220.57;;;14.51;69.47
70916;BME280;58557;50.982;-3.222;2023-06-22T04:24:43;101219.34;;;15.23;68.62
70916;BME280;58557;50.982;-3.222;2023-06-22T04:27:08;101222.06;;;13.89;74.22
70916;BME280;58557;50.982;-3.222;2023-06-22T04:29:33;101218.98;;;16.82;64.09
70916;BME280;58557;50.982;-3.222;2023-06-22T04:31:59;101216.18;;;17.25;61.40
70916;BME280;58557;50.982;-3.222;2023-06-22T04:34:25;101218.22;;;16.81;59.90
70916;BME280;58557;50.982;-3.222;2023-06-22T04:36:50;101216.47;;;17.56;60.57
70916;BME280;58557;50.982;-3.222;2023-06-22T04:39:15;101221.94;;;16.19;62.84
70916;BME280;58557;50.982;-3.222;2023-06-22T04:41:41;101221.66;;;16.55;60.08
70916;BME280;58557;50.982;-3.222;2023-06-22T04:44:06;101221.40;;;15.37;64.51
70916;BME280;58557;50.982;-3.222;2023-06-22T04:46:32;101221.16;;;16.86;61.64
70916;BME280;58557;50.982;-3.222;2023-06-22T04:48:57;101219.22;;;17.42;59.28
70916;BME280;58557;50.982;-3.222;2023-06-22T04:51:22;101221.82;;;15.63;63.97
70916;BME280;58557;50.982;-3.222;2023-06-22T04:53:47;101228.55;;;16.22;61.99
70916;BME280;58557;50.982;-3.222;2023-06-22T04:56:12;101227.42;;;17.54;60.51
70916;BME280;58557;50.982;-3.222;2023-06-22T04:58:38;101227.55;;;16.46;64.07
70916;BME280;58557;50.982;-3.222;2023-06-22T05:01:03;101225.03;;;17.52;60.08
70916;BME280;58557;50.982;-3.222;2023-06-22T05:03:29;101228.24;;;16.09;61.93
70916;BME280;58557;50.982;-3.222;2023-06-22T05:05:54;101228.13;;;17.76;58.20
70916;BME280;58557;50.982;-3.222;2023-06-22T05:08:19;101223.89;;;17.09;58.93
70916;BME280;58557;50.982;-3.222;2023-06-22T05:10:44;101225.04;;;17.03;59.91
70916;BME280;58557;50.982;-3.222;2023-06-22T05:13:10;101229.62;;;15.59;63.16
70916;BME280;58557;50.982;-3.222;2023-06-22T05:15:35;101230.20;;;16.37;61.82
70916;BME280;58557;50.982;-3.222;2023-06-22T05:18:01;101229.81;;;17.46;58.91
70916;BME280;58557;50.982;-3.222;2023-06-22T05:20:26;101225.95;;;18.26;57.56
70916;BME280;58557;50.982;-3.222;2023-06-22T05:22:52;101224.35;;;18.35;57.59
70916;BME280;58557;50.982;-3.222;2023-06-22T05:25:18;101222.32;;;18.10;56.89
70916;BME280;58557;50.982;-3.222;2023-06-22T05:27:43;101219.07;;;17.78;59.40
70916;BME280;58557;50.982;-3.222;2023-06-22T05:30:10;101221.27;;;18.21;57.50
70916;BME280;58557;50.982;-3.222;2023-06-22T05:32:34;101223.79;;;17.43;58.49
70916;BME280;58557;50.982;-3.222;2023-06-22T05:35:00;101220.45;;;16.98;60.48
70916;BME280;58557;50.982;-3.222;2023-06-22T05:37:25;101222.66;;;15.54;65.92
70916;BME280;58557;50.982;-3.222;2023-06-22T05:39:51;101220.60;;;16.70;65.48
70916;BME280;58557;50.982;-3.222;2023-06-22T05:42:16;101227.72;;;15.57;69.47
70916;BME280;58557;50.982;-3.222;2023-06-22T05:44:42;101230.40;;;15.87;67.10
70916;BME280;58557;50.982;-3.222;2023-06-22T05:47:07;101230.75;;;16.84;64.54
70916;BME280;58557;50.982;-3.222;2023-06-22T05:49:32;101229.68;;;17.29;63.41
70916;BME280;58557;50.982;-3.222;2023-06-22T05:51:59;101233.27;;;14.85;77.29
70916;BME280;58557;50.982;-3.222;2023-06-22T05:54:24;101230.42;;;14.84;73.73
70916;BME280;58557;50.982;-3.222;2023-06-22T05:56:49;101228.40;;;16.22;68.67
70916;BME280;58557;50.982;-3.222;2023-06-22T05:59:15;101231.13;;;17.33;66.20
70916;BME280;58557;50.982;-3.222;2023-06-22T06:01:40;101234.00;;;16.63;68.51
70916;BME280;58557;50.982;-3.222;2023-06-22T06:04:06;101230.27;;;17.22;64.75
70916;BME280;58557;50.982;-3.222;2023-06-22T06:06:31;101232.24;;;18.84;59.51
70916;BME280;58557;50.982;-3.222;2023-06-22T06:08:57;101232.14;;;18.79;58.42
70916;BME280;58557;50.982;-3.222;2023-06-22T06:11:23;101236.52;;;18.84;58.18
70916;BME280;58557;50.982;-3.222;2023-06-22T06:13:48;101240.51;;;19.16;58.42
70916;BME280;58557;50.982;-3.222;2023-06-22T06:16:14;101239.75;;;18.94;59.75
70916;BME280;58557;50.982;-3.222;2023-06-22T06:18:39;101240.84;;;20.37;56.07
70916;BME280;58557;50.982;-3.222;2023-06-22T06:21:05;101233.93;;;20.59;54.12
70916;BME280;58557;50.982;-3.222;2023-06-22T06:23:30;101238.78;;;20.25;55.62
70916;BME280;58557;50.982;-3.222;2023-06-22T06:25:55;101239.28;;;20.56;55.44
70916;BME280;58557;50.982;-3.222;2023-06-22T06:28:21;101240.45;;;17.81;64.76
70916;BME280;58557;50.982;-3.222;2023-06-22T06:30:46;101245.93;;;19.00;59.20
70916;BME280;58557;50.982;-3.222;2023-06-22T06:33:12;101245.61;;;18.85;61.51
70916;BME280;58557;50.982;-3.222;2023-06-22T06:35:37;101252.08;;;19.21;62.56
70916;BME280;58557;50.982;-3.222;2023-06-22T06:38:02;101250.30;;;20.41;57.29
70916;BME280;58557;50.982;-3.222;2023-06-22T06:40:27;101249.41;;;21.25;55.78
70916;BME280;58557;50.982;-3.222;2023-06-22T06:42:53;101249.13;;;21.20;51.99
70916;BME280;58557;50.982;-3.222;2023-06-22T06:45:20;101255.08;;;19.48;58.83
70916;BME280;58557;50.982;-3.222;2023-06-22T06:47:44;101250.39;;;20.03;55.91
70916;BME280;58557;50.982;-3.222;2023-06-22T06:50:11;101248.75;;;20.02;54.85
70916;BME280;58557;50.982;-3.222;2023-06-22T06:52:35;101252.62;;;19.88;58.60
70916;BME280;58557;50.982;-3.222;2023-06-22T06:55:01;101251.38;;;20.08;57.38
70916;BME280;58557;50.982;-3.222;2023-06-22T06:57:26;101257.45;;;20.62;54.11
70916;BME280;58557;50.982;-3.222;2023-06-22T06:59:52;101263.64;;;20.17;55.32
70916;BME280;58557;50.982;-3.222;2023-06-22T07:02:17;101264.86;;;21.97;51.20
70916;BME280;58557;50.982;-3.222;2023-06-22T07:04:43;101269.71;;;21.13;53.47
70916;BME280;58557;50.982;-3.222;2023-06-22T07:07:09;101272.33;;;20.24;54.87
70916;BME280;58557;50.982;-3.222;2023-06-22T07:09:34;101274.40;;;21.99;51.30
70916;BME280;58557;50.982;-3.222;2023-06-22T07:12:00;101278.59;;;23.60;48.07
70916;BME280;58557;50.982;-3.222;2023-06-22T07:14:25;101278.89;;;22.48;48.00
70916;BME280;58557;50.982;-3.222;2023-06-22T07:16:51;101278.73;;;22.80;48.20
70916;BME280;58557;50.982;-3.222;2023-06-22T07:19:16;101274.74;;;23.26;46.87
70916;BME280;58557;50.982;-3.222;2023-06-22T07:21:42;101278.40;;;23.57;47.23
70916;BME280;58557;50.982;-3.222;2023-06-22T07:24:07;101279.91;;;24.56;43.25
70916;BME280;58557;50.982;-3.222;2023-06-22T07:26:33;101272.76;;;25.34;42.74
70916;BME280;58557;50.982;-3.222;2023-06-22T07:28:59;101275.26;;;24.61;44.37
70916;BME280;58557;50.982;-3.222;2023-06-22T07:31:24;101277.52;;;24.07;45.85
70916;BME280;58557;50.982;-3.222;2023-06-22T07:33:50;101267.73;;;25.85;41.27
70916;BME280;58557;50.982;-3.222;2023-06-22T07:36:16;101271.62;;;26.89;42.08
70916;BME280;58557;50.982;-3.222;2023-06-22T07:38:41;101268.74;;;26.38;40.31
70916;BME280;58557;50.982;-3.222;2023-06-22T07:41:06;101266.32;;;27.22;38.42
70916;BME280;58557;50.982;-3.222;2023-06-22T07:43:32;101262.80;;;27.79;39.70
70916;BME280;58557;50.982;-3.222;2023-06-22T07:45:57;101265.73;;;25.93;40.10
70916;BME280;58557;50.982;-3.222;2023-06-22T07:48:23;101268.63;;;27.77;39.68
70916;BME280;58557;50.982;-3.222;2023-06-22T07:50:49;101267.17;;;27.11;39.81
70916;BME280;58557;50.982;-3.222;2023-06-22T07:53:14;101267.80;;;28.29;37.32
70916;BME280;58557;50.982;-3.222;2023-06-22T07:55:39;101265.81;;;27.68;37.46
70916;BME280;58557;50.982;-3.222;2023-06-22T07:58:05;101269.50;;;26.38;38.97
70916;BME280;58557;50.982;-3.222;2023-06-22T08:00:30;101270.38;;;26.72;39.93
70916;BME280;58557;50.982;-3.222;2023-06-22T08:02:55;101269.19;;;27.67;37.95
70916;BME280;58557;50.982;-3.222;2023-06-22T08:05:21;101268.72;;;28.65;37.39
70916;BME280;58557;50.982;-3.222;2023-06-22T08:07:46;101267.15;;;26.74;38.14
70916;BME280;58557;50.982;-3.222;2023-06-22T08:10:12;101267.59;;;28.98;36.96
70916;BME280;58557;50.982;-3.222;2023-06-22T08:12:37;101264.09;;;27.87;36.73
70916;BME280;58557;50.982;-3.222;2023-06-22T08:15:02;101265.41;;;28.35;37.56
70916;BME280;58557;50.982;-3.222;2023-06-22T08:17:27;101261.11;;;27.80;37.00
70916;BME280;58557;50.982;-3.222;2023-06-22T08:19:53;101262.92;;;27.51;37.72
70916;BME280;58557;50.982;-3.222;2023-06-22T08:22:19;101265.06;;;27.65;37.81
70916;BME280;58557;50.982;-3.222;2023-06-22T08:24:44;101266.01;;;28.45;36.60
70916;BME280;58557;50.982;-3.222;2023-06-22T08:27:10;101265.01;;;27.58;37.26
70916;BME280;58557;50.982;-3.222;2023-06-22T08:29:35;101266.12;;;29.19;35.21
70916;BME280;58557;50.982;-3.222;2023-06-22T08:32:01;101261.95;;;28.08;36.06
70916;BME280;58557;50.982;-3.222;2023-06-22T08:34:26;101258.54;;;27.93;36.51
70916;BME280;58557;50.982;-3.222;2023-06-22T08:36:52;101256.71;;;27.82;36.70
70916;BME280;58557;50.982;-3.222;2023-06-22T08:39:18;101254.71;;;27.73;36.97
70916;BME280;58557;50.982;-3.222;2023-06-22T08:41:43;101257.24;;;27.42;38.05
70916;BME280;58557;50.982;-3.222;2023-06-22T08:44:08;101257.42;;;25.71;40.44
70916;BME280;58557;50.982;-3.222;2023-06-22T08:46:34;101259.71;;;24.82;42.03
70916;BME280;58557;50.982;-3.222;2023-06-22T08:49:00;101259.37;;;24.88;42.26
70916;BME280;58557;50.982;-3.222;2023-06-22T08:51:24;101257.00;;;24.51;43.94
70916;BME280;58557;50.982;-3.222;2023-06-22T08:53:50;101252.58;;;25.73;40.00
70916;BME280;58557;50.982;-3.222;2023-06-22T08:56:16;101255.72;;;25.59;39.42
70916;BME280;58557;50.982;-3.222;2023-06-22T08:58:41;101265.16;;;25.01;40.12
70916;BME280;58557;50.982;-3.222;2023-06-22T09:01:06;101273.30;;;24.09;41.85
70916;BME280;58557;50.982;-3.222;2023-06-22T09:03:32;101277.32;;;25.27;41.46
70916;BME280;58557;50.982;-3.222;2023-06-22T09:05:58;101279.80;;;24.95;41.65
70916;BME280;58557;50.982;-3.222;2023-06-22T09:08:23;101281.33;;;24.89;41.96
70916;BME280;58557;50.982;-3.222;2023-06-22T09:10:54;101281.28;;;24.57;42.46
70916;BME280;58557;50.982;-3.222;2023-06-22T09:13:14;101280.90;;;25.55;40.54
70916;BME280;58557;50.982;-3.222;2023-06-22T09:15:40;101278.60;;;25.47;39.68
70916;BME280;58557;50.982;-3.222;2023-06-22T09:18:05;101284.20;;;26.65;37.86
70916;BME280;58557;50.982;-3.222;2023-06-22T09:20:31;101282.03;;;25.56;40.26
70916;BME280;58557;50.982;-3.222;2023-06-22T09:22:56;101284.60;;;25.04;40.19
70916;BME280;58557;50.982;-3.222;2023-06-22T09:25:22;101287.98;;;25.09;41.01
70916;BME280;58557;50.982;-3.222;2023-06-22T09:27:47;101288.85;;;24.12;42.02
70916;BME280;58557;50.982;-3.222;2023-06-22T09:30:12;101288.61;;;24.47;41.63
70916;BME280;58557;50.982;-3.222;2023-06-22T09:32:38;101286.09;;;24.40;40.74
70916;BME280;58557;50.982;-3.222;2023-06-22T09:35:05;101287.80;;;24.82;43.84
70916;BME280;58557;50.982;-3.222;2023-06-22T09:37:29;101281.44;;;26.75;39.80
70916;BME280;58557;50.982;-3.222;2023-06-22T09:39:54;101281.63;;;26.14;37.00
70916;BME280;58557;50.982;-3.222;2023-06-22T09:42:20;101284.30;;;23.30;42.77
70916;BME280;58557;50.982;-3.222;2023-06-22T09:44:45;101282.10;;;25.42;39.59
70916;BME280;58557;50.982;-3.222;2023-06-22T09:47:11;101287.01;;;26.83;37.94
70916;BME280;58557;50.982;-3.222;2023-06-22T09:49:36;101287.89;;;27.24;36.65
70916;BME280;58557;50.982;-3.222;2023-06-22T09:52:02;101286.35;;;26.86;38.09
70916;BME280;58557;50.982;-3.222;2023-06-22T09:54:27;101284.32;;;27.97;36.09
70916;BME280;58557;50.982;-3.222;2023-06-22T09:56:53;101289.13;;;27.46;35.40
70916;BME280;58557;50.982;-3.222;2023-06-22T09:59:18;101285.90;;;28.30;34.67
70916;BME280;58557;50.982;-3.222;2023-06-22T10:01:44;101288.00;;;28.37;35.85
70916;BME280;58557;50.982;-3.222;2023-06-22T10:04:09;101291.58;;;27.92;34.86
70916;BME280;58557;50.982;-3.222;2023-06-22T10:06:35;101290.57;;;26.51;37.43
70916;BME280;58557;50.982;-3.222;2023-06-22T10:09:00;101287.99;;;26.11;38.30
70916;BME280;58557;50.982;-3.222;2023-06-22T10:11:26;101291.16;;;25.57;39.30
70916;BME280;58557;50.982;-3.222;2023-06-22T10:13:51;101291.34;;;27.45;37.10
70916;BME280;58557;50.982;-3.222;2023-06-22T10:16:17;101293.79;;;28.20;36.21
70916;BME280;58557;50.982;-3.222;2023-06-22T10:18:42;101297.14;;;25.74;38.93
70916;BME280;58557;50.982;-3.222;2023-06-22T10:21:08;101303.07;;;24.56;40.67
70916;BME280;58557;50.982;-3.222;2023-06-22T10:23:33;101301.61;;;23.87;42.31
70916;BME280;58557;50.982;-3.222;2023-06-22T10:25:58;101301.59;;;24.14;41.89
70916;BME280;58557;50.982;-3.222;2023-06-22T10:28:24;101303.20;;;23.80;41.74
70916;BME280;58557;50.982;-3.222;2023-06-22T10:30:50;101304.95;;;23.99;41.79
70916;BME280;58557;50.982;-3.222;2023-06-22T10:33:15;101306.48;;;24.42;40.95
70916;BME280;58557;50.982;-3.222;2023-06-22T10:35:41;101304.94;;;24.44;40.34
70916;BME280;58557;50.982;-3.222;2023-06-22T10:38:07;101301.60;;;24.28;39.96
70916;BME280;58557;50.982;-3.222;2023-06-22T10:40:32;101295.76;;;25.77;37.65
70916;BME280;58557;50.982;-3.222;2023-06-22T10:42:57;101292.54;;;25.97;37.02
70916;BME280;58557;50.982;-3.222;2023-06-22T10:45:23;101293.63;;;27.88;38.13
70916;BME280;58557;50.982;-3.222;2023-06-22T10:47:48;101293.16;;;28.13;34.19
70916;BME280;58557;50.982;-3.222;2023-06-22T10:50:14;101297.64;;;28.55;36.02
70916;BME280;58557;50.982;-3.222;2023-06-22T10:52:40;101300.75;;;28.97;33.45
70916;BME280;58557;50.982;-3.222;2023-06-22T10:55:06;101302.47;;;28.43;35.08
70916;BME280;58557;50.982;-3.222;2023-06-22T10:57:30;101309.84;;;27.75;35.42
70916;BME280;58557;50.982;-3.222;2023-06-22T10:59:56;101312.58;;;26.85;36.62
70916;BME280;58557;50.982;-3.222;2023-06-22T11:02:21;101312.70;;;25.93;38.36
70916;BME280;58557;50.982;-3.222;2023-06-22T11:04:47;101316.47;;;24.81;41.09
70916;BME280;58557;50.982;-3.222;2023-06-22T11:07:13;101317.52;;;23.54;45.39
70916;BME280;58557;50.982;-3.222;2023-06-22T11:09:38;101315.39;;;24.05;44.93
70916;BME280;58557;50.982;-3.222;2023-06-22T11:12:04;101314.42;;;23.34;45.62
70916;BME280;58557;50.982;-3.222;2023-06-22T11:14:29;101314.58;;;24.54;44.01
70916;BME280;58557;50.982;-3.222;2023-06-22T11:16:54;101312.76;;;24.33;43.44
70916;BME280;58557;50.982;-3.222;2023-06-22T11:19:20;101313.83;;;24.10;42.41
70916;BME280;58557;50.982;-3.222;2023-06-22T11:21:45;101316.09;;;23.11;44.83
70916;BME280;58557;50.982;-3.222;2023-06-22T11:24:11;101318.55;;;22.56;46.20
70916;BME280;58557;50.982;-3.222;2023-06-22T11:26:37;101314.75;;;22.18;48.21
70916;BME280;58557;50.982;-3.222;2023-06-22T11:29:02;101314.18;;;22.12;48.41
70916;BME280;58557;50.982;-3.222;2023-06-22T11:31:27;101310.99;;;22.25;48.04
70916;BME280;58557;50.982;-3.222;2023-06-22T11:33:53;101311.60;;;24.06;44.22
70916;BME280;58557;50.982;-3.222;2023-06-22T11:36:19;101309.77;;;25.26;42.64
70916;BME280;58557;50.982;-3.222;2023-06-22T11:38:44;101311.43;;;24.65;41.35
70916;BME280;58557;50.982;-3.222;2023-06-22T11:41:10;101303.88;;;26.01;41.06
70916;BME280;58557;50.982;-3.222;2023-06-22T11:43:35;101308.09;;;24.55;41.05
70916;BME280;58557;50.982;-3.222;2023-06-22T11:46:01;101307.36;;;24.25;42.10
70916;BME280;58557;50.982;-3.222;2023-06-22T11:48:26;101313.83;;;24.55;40.82
70916;BME280;58557;50.982;-3.222;2023-06-22T11:50:51;101314.86;;;24.56;39.92
70916;BME280;58557;50.982;-3.222;2023-06-22T11:53:17;101309.76;;;25.87;41.41
70916;BME280;58557;50.982;-3.222;2023-06-22T11:55:42;101303.53;;;26.33;37.36
70916;BME280;58557;50.982;-3.222;2023-06-22T11:58:07;101308.29;;;25.42;38.46
70916;BME280;58557;50.982;-3.222;2023-06-22T12:00:33;101308.76;;;25.12;39.69
70916;BME280;58557;50.982;-3.222;2023-06-22T12:02:58;101306.34;;;25.77;40.02
70916;BME280;58557;50.982;-3.222;2023-06-22T12:05:24;101304.82;;;27.76;36.47
70916;BME280;58557;50.982;-3.222;2023-06-22T12:07:49;101305.98;;;27.05;34.75
70916;BME280;58557;50.982;-3.222;2023-06-22T12:10:15;101297.52;;;25.58;38.37
70916;BME280;58557;50.982;-3.222;2023-06-22T12:12:40;101300.68;;;27.00;35.80
70916;BME280;58557;50.982;-3.222;2023-06-22T12:15:06;101298.46;;;26.07;36.16
70916;BME280;58557;50.982;-3.222;2023-06-22T12:17:31;101299.22;;;25.83;38.27
70916;BME280;58557;50.982;-3.222;2023-06-22T12:19:57;101296.52;;;26.55;36.29
70916;BME280;58557;50.982;-3.222;2023-06-22T12:22:22;101298.15;;;26.50;36.47
70916;BME280;58557;50.982;-3.222;2023-06-22T12:24:47;101295.14;;;25.80;38.31
70916;BME280;58557;50.982;-3.222;2023-06-22T12:27:13;101295.16;;;25.99;36.50
70916;BME280;58557;50.982;-3.222;2023-06-22T12:29:38;101295.61;;;26.78;36.44